Time;durP1;ratioP1;P1;durP2;ratioP2;P2;SDS_P1;SDS_P2;PMS_P1;PMS_P2;Temp;Humidity;BMP_temperature;BMP_pressure;BME280_temperature;BME280_humidity;BME280_pressure;Samples;Min_cycle;Max_cycle;Signal;HPM_P1;HPM_P2
2021/12/09 00:01:17;;;;;;;2.27;1.63;;;;;;;4.48;93.08;94840.59;5036594;28;21289;-69
2021/12/09 00:03:43;;;;;;;2.63;2.17;;;;;;;4.29;93.21;94838.44;5037632;28;20215;-69
2021/12/09 00:06:11;;;;;;;1.60;1.27;;;;;;;4.71;92.71;94837.97;5038980;28;20229;-69
2021/12/09 00:08:41;;;;;;;12.37;3.37;;;;;;;4.63;93.00;94841.44;5038684;28;20203;-70
2021/12/09 00:11:07;;;;;;;6.27;2.93;;;;;;;4.21;93.26;94839.50;5038063;28;20228;-70
2021/12/09 00:13:34;;;;;;;3.83;2.53;;;;;;;4.32;93.49;94829.47;5037827;28;20209;-70
2021/12/09 00:16:01;;;;;;;1.70;1.30;;;;;;;4.35;92.99;94826.50;5039879;28;20197;-69
2021/12/09 00:18:28;;;;;;;2.43;1.83;;;;;;;4.25;93.58;94825.91;5038099;28;20806;-70
2021/12/09 00:20:54;;;;;;;3.87;2.57;;;;;;;4.06;94.60;94815.97;5038476;28;20224;-70
2021/12/09 00:23:21;;;;;;;2.67;1.83;;;;;;;4.15;94.35;94803.66;5038621;28;20613;-69
2021/12/09 00:25:49;;;;;;;3.53;1.53;;;;;;;4.20;95.14;94807.41;5039014;28;20598;-70
2021/12/09 00:28:15;;;;;;;3.53;2.33;;;;;;;4.10;94.70;94830.28;5039035;28;20208;-70
2021/12/09 00:30:42;;;;;;;2.23;1.87;;;;;;;4.07;94.87;94848.03;5039144;28;20232;-70
2021/12/09 00:33:11;;;;;;;2.37;1.60;;;;;;;4.46;94.27;94844.38;5039547;28;20212;-69
2021/12/09 00:35:44;;;;;;;3.10;1.67;;;;;;;4.46;93.33;94844.38;5039774;28;20259;-70
2021/12/09 00:38:19;;;;;;;4.10;2.10;;;;;;;4.60;92.85;94846.22;5039145;28;20292;-69
2021/12/09 00:40:46;;;;;;;1.27;1.00;;;;;;;4.44;93.48;94856.75;5040180;28;20228;-70
2021/12/09 00:43:15;;;;;;;10.20;2.23;;;;;;;4.74;92.40;94861.91;5039985;28;20240;-69
2021/12/09 00:45:41;;;;;;;2.57;2.20;;;;;;;4.63;92.38;94871.94;5039876;28;20719;-70
2021/12/09 00:48:08;;;;;;;7.90;2.83;;;;;;;4.25;93.61;94872.84;5040591;28;20224;-69
2021/12/09 00:50:34;;;;;;;3.57;1.90;;;;;;;4.18;93.94;94873.72;5039953;28;20236;-70
2021/12/09 00:53:02;;;;;;;5.90;2.50;;;;;;;4.42;93.14;94869.19;5039724;28;20227;-69
2021/12/09 00:55:28;;;;;;;2.23;1.00;;;;;;;3.96;94.57;94872.69;5040328;28;20216;-69
2021/12/09 00:57:55;;;;;;;2.73;1.67;;;;;;;4.10;94.63;94856.34;5040291;28;20213;-70
2021/12/09 01:00:24;;;;;;;3.20;2.27;;;;;;;4.37;94.63;94850.63;5037615;28;20201;-70
2021/12/09 01:02:50;;;;;;;2.30;2.07;;;;;;;4.09;94.67;94859.13;5039712;28;21093;-69
2021/12/09 01:05:17;;;;;;;5.27;2.90;;;;;;;4.35;93.88;94868.22;5040120;28;20226;-70
2021/12/09 01:07:44;;;;;;;1.40;1.20;;;;;;;4.58;92.83;94863.84;5040193;28;20221;-70
2021/12/09 01:10:15;;;;;;;0.97;0.93;;;;;;;4.80;92.81;94870.84;5040361;28;20588;-70
2021/12/09 01:12:41;;;;;;;3.60;2.27;;;;;;;4.15;93.98;94871.44;5039365;28;20216;-69
2021/12/09 01:15:11;;;;;;;2.87;1.97;;;;;;;4.29;94.62;94858.50;5039645;28;20212;-70
2021/12/09 01:17:39;;;;;;;5.43;2.00;;;;;;;4.54;93.89;94873.00;5039407;28;20220;-69
2021/12/09 01:20:08;;;;;;;3.40;2.47;;;;;;;4.57;93.53;94883.06;5039493;28;20209;-70
2021/12/09 01:22:39;;;;;;;3.70;1.93;;;;;;;4.40;93.25;94877.19;5038919;28;20223;-70
2021/12/09 01:25:07;;;;;;;3.03;2.57;;;;;;;4.38;93.66;94867.91;5038865;28;20854;-69
2021/12/09 01:27:36;;;;;;;4.43;3.07;;;;;;;4.32;93.49;94863.38;5038841;28;20918;-70
2021/12/09 01:30:08;;;;;;;2.90;2.30;;;;;;;4.63;92.91;94864.13;5037820;28;20223;-70
2021/12/09 01:32:35;;;;;;;6.50;2.57;;;;;;;4.36;93.16;94859.44;5038094;28;20216;-71
2021/12/09 01:35:04;;;;;;;7.53;3.33;;;;;;;4.59;92.97;94848.00;5038897;28;20204;-69
2021/12/09 01:37:31;;;;;;;3.53;2.87;;;;;;;4.51;92.93;94848.06;5038747;28;20201;-70
2021/12/09 01:39:57;;;;;;;2.53;2.13;;;;;;;4.43;92.78;94850.75;5038847;28;20216;-70
2021/12/09 01:42:24;;;;;;;3.63;2.73;;;;;;;4.53;92.19;94855.72;5038689;28;20236;-70
2021/12/09 01:44:50;;;;;;;5.50;2.73;;;;;;;4.59;91.92;94861.03;5039111;28;20204;-70
2021/12/09 01:47:17;;;;;;;2.53;1.90;;;;;;;4.59;91.75;94857.63;5038875;28;20220;-70
2021/12/09 01:49:43;;;;;;;4.53;2.50;;;;;;;4.68;91.52;94869.63;5039565;28;20594;-70
2021/12/09 01:52:11;;;;;;;3.73;2.57;;;;;;;4.75;92.09;94887.03;5038763;28;20271;-70
2021/12/09 01:54:38;;;;;;;1.53;1.43;;;;;;;4.39;92.31;94896.41;5037920;28;20216;-70
2021/12/09 01:57:06;;;;;;;2.93;2.07;;;;;;;4.82;92.16;94905.41;5039040;28;20216;-70
2021/12/09 01:59:33;;;;;;;3.23;1.97;;;;;;;4.55;91.34;94905.94;5036437;28;20215;-69
2021/12/09 02:02:00;;;;;;;4.10;2.77;;;;;;;4.47;92.39;94909.38;5039599;28;20229;-70
2021/12/09 02:04:27;;;;;;;1.90;1.43;;;;;;;4.44;92.58;94908.91;5039432;28;20215;-70
2021/12/09 02:06:54;;;;;;;3.27;2.53;;;;;;;4.43;92.86;94917.72;5039574;28;20753;-70
2021/12/09 02:09:21;;;;;;;2.80;2.40;;;;;;;4.34;94.27;94913.53;5039976;28;20223;-70
2021/12/09 02:11:48;;;;;;;3.07;2.77;;;;;;;4.14;93.94;94908.91;5040717;28;20232;-70
2021/12/09 02:14:15;;;;;;;3.83;1.87;;;;;;;4.21;93.71;94907.25;5040213;28;20212;-70
2021/12/09 02:16:42;;;;;;;4.97;1.60;;;;;;;4.31;93.79;94917.28;5039392;28;20217;-70
2021/12/09 02:19:10;;;;;;;3.13;2.40;;;;;;;4.40;93.33;94923.28;5039681;28;20296;-70
2021/12/09 02:21:38;;;;;;;4.70;2.10;;;;;;;4.37;94.01;94919.22;5039863;28;20221;-70
2021/12/09 02:24:08;;;;;;;4.77;2.53;;;;;;;4.47;94.16;94926.84;5038745;28;20228;-69
2021/12/09 02:26:37;;;;;;;6.17;3.87;;;;;;;4.46;93.55;94938.25;5040084;28;20217;-70
2021/12/09 02:29:06;;;;;;;5.40;3.07;;;;;;;4.32;94.18;94925.94;5039721;28;20223;-70
2021/12/09 02:31:33;;;;;;;2.97;2.03;;;;;;;4.26;94.03;94916.19;5039055;28;20573;-70
2021/12/09 02:34:01;;;;;;;1.63;1.27;;;;;;;4.24;94.41;94923.38;5039450;28;20213;-70
2021/12/09 02:36:31;;;;;;;1.87;1.77;;;;;;;4.38;94.48;94920.06;5042362;28;20216;-70
2021/12/09 02:38:59;;;;;;;2.87;2.27;;;;;;;4.28;94.55;94919.44;5043612;28;20953;-71
2021/12/09 02:41:27;;;;;;;4.07;2.43;;;;;;;4.36;94.23;94912.38;5043696;28;20744;-70
2021/12/09 02:43:57;;;;;;;4.70;2.40;;;;;;;4.55;93.90;94905.94;5043453;28;20209;-70
2021/12/09 02:46:25;;;;;;;4.53;2.30;;;;;;;4.19;94.32;94897.00;5043774;28;20223;-70
2021/12/09 02:48:52;;;;;;;3.50;1.87;;;;;;;4.30;94.13;94894.00;5043676;28;20278;-70
2021/12/09 02:51:19;;;;;;;2.40;1.97;;;;;;;4.39;93.86;94912.06;5044488;28;20266;-71
2021/12/09 02:53:45;;;;;;;5.00;2.53;;;;;;;4.23;93.84;94922.56;5044176;28;20209;-70
2021/12/09 02:56:14;;;;;;;11.83;3.07;;;;;;;4.71;93.21;94917.06;5044598;28;20403;-70
2021/12/09 02:58:41;;;;;;;4.43;2.50;;;;;;;4.30;93.52;94917.47;5044286;28;20852;-71
2021/12/09 03:01:14;;;;;;;2.50;1.63;;;;;;;4.74;92.87;94915.91;5043216;28;20228;-70
2021/12/09 03:03:49;;;;;;;2.80;2.07;;;;;;;4.63;92.86;94918.91;5044600;28;20643;-71
2021/12/09 03:06:16;;;;;;;3.73;1.73;;;;;;;4.68;92.37;94909.56;5045192;28;20290;-70
2021/12/09 03:08:43;;;;;;;3.27;3.00;;;;;;;4.70;92.02;94904.16;5044547;28;20213;-71
2021/12/09 03:11:12;;;;;;;2.47;1.77;;;;;;;4.92;91.69;94896.34;5044693;28;20224;-70
2021/12/09 03:13:42;;;;;;;2.30;1.57;;;;;;;4.98;91.51;94898.28;5044033;28;20216;-70
2021/12/09 03:16:09;;;;;;;2.63;2.43;;;;;;;4.73;91.63;94915.06;5043652;28;20674;-71
2021/12/09 03:18:39;;;;;;;3.77;2.60;;;;;;;4.75;92.17;94927.94;5042835;28;20980;-69
2021/12/09 03:21:13;;;;;;;2.23;2.03;;;;;;;4.84;92.18;94928.53;5043636;28;20236;-70
2021/12/09 03:23:40;;;;;;;2.53;1.53;;;;;;;4.50;92.15;94913.44;5042501;28;20354;-70
2021/12/09 03:26:06;;;;;;;3.37;2.23;;;;;;;4.54;92.37;94909.50;5042957;28;20212;-70
2021/12/09 03:28:33;;;;;;;4.00;1.90;;;;;;;4.20;93.95;94911.66;5043220;28;20209;-71
2021/12/09 03:31:01;;;;;;;3.77;1.40;;;;;;;4.29;93.97;94921.88;5043583;28;20240;-71
2021/12/09 03:33:28;;;;;;;3.17;1.67;;;;;;;4.27;93.61;94923.03;5043021;28;20209;-70
2021/12/09 03:35:57;;;;;;;3.03;1.47;;;;;;;4.71;92.96;94924.06;5042996;28;20205;-70
2021/12/09 03:38:24;;;;;;;1.40;1.30;;;;;;;4.47;92.73;94917.22;5043754;28;20204;-70
2021/12/09 03:40:51;;;;;;;6.23;1.83;;;;;;;4.46;92.58;94920.00;5041377;28;20233;-70
2021/12/09 03:43:18;;;;;;;3.20;2.23;;;;;;;4.31;93.35;94929.53;5043689;28;20578;-70
2021/12/09 03:45:44;;;;;;;2.23;1.37;;;;;;;4.38;93.45;94946.13;5044618;28;20430;-71
2021/12/09 03:48:12;;;;;;;5.70;3.00;;;;;;;4.64;93.00;94952.63;5042967;28;20238;-70
2021/12/09 03:50:39;;;;;;;2.63;1.73;;;;;;;4.60;92.70;94963.59;5043633;28;20236;-70
2021/12/09 03:53:05;;;;;;;6.23;1.73;;;;;;;4.64;92.06;94968.28;5043704;28;20573;-70
2021/12/09 03:55:32;;;;;;;3.17;2.53;;;;;;;4.65;91.85;94976.94;5045351;28;20205;-70
2021/12/09 03:57:59;;;;;;;3.87;1.87;;;;;;;4.73;91.29;94971.69;5044853;28;20234;-70
2021/12/09 04:00:28;;;;;;;2.10;1.87;;;;;;;4.62;91.93;94959.00;5042283;28;20237;-70
2021/12/09 04:02:54;;;;;;;3.53;1.57;;;;;;;4.71;91.35;94952.75;5043513;28;20213;-70
2021/12/09 04:05:22;;;;;;;3.63;2.20;;;;;;;5.00;91.11;94949.31;5045086;28;21006;-71
2021/12/09 04:07:49;;;;;;;2.90;2.10;;;;;;;4.64;91.51;94944.81;5044589;28;20228;-70
2021/12/09 04:10:15;;;;;;;4.30;2.13;;;;;;;4.71;91.38;94944.94;5044665;28;20209;-70
2021/12/09 04:12:42;;;;;;;3.30;2.43;;;;;;;4.69;91.05;94946.91;5043847;28;20219;-70
2021/12/09 04:15:11;;;;;;;4.10;1.93;;;;;;;4.90;90.92;94959.16;5043788;28;20223;-70
2021/12/09 04:17:37;;;;;;;2.50;2.27;;;;;;;4.79;91.46;94960.56;5043240;28;20208;-70
2021/12/09 04:20:06;;;;;;;3.13;2.33;;;;;;;4.95;90.71;94963.84;5043189;28;20201;-70
2021/12/09 04:22:35;;;;;;;5.80;2.70;;;;;;;4.91;91.04;94968.63;5043472;28;20213;-70
2021/12/09 04:25:02;;;;;;;2.93;2.23;;;;;;;4.83;90.82;94980.91;5043754;28;20205;-70
2021/12/09 04:27:29;;;;;;;2.37;1.77;;;;;;;4.64;91.16;94983.13;5044464;28;20229;-70
2021/12/09 04:29:55;;;;;;;5.13;3.13;;;;;;;4.78;91.18;94982.41;5043888;28;20208;-70
2021/12/09 04:32:22;;;;;;;3.13;2.13;;;;;;;4.65;91.35;94976.94;5043071;28;20573;-70
2021/12/09 04:34:53;;;;;;;6.47;4.30;;;;;;;4.66;91.19;94983.75;5044297;28;20201;-70
2021/12/09 04:37:21;;;;;;;3.10;2.67;;;;;;;4.81;90.85;94982.84;5043660;28;20205;-70
2021/12/09 04:39:49;;;;;;;18.80;3.93;;;;;;;4.98;90.90;94987.81;5044017;28;20214;-71
2021/12/09 04:42:15;;;;;;;5.17;4.13;;;;;;;4.65;91.12;94984.78;5043634;28;20239;-70
2021/12/09 04:44:42;;;;;;;6.83;3.10;;;;;;;4.61;91.28;94991.28;5044278;28;20217;-69
2021/12/09 04:47:09;;;;;;;7.13;3.27;;;;;;;4.44;91.91;94992.34;5044187;28;20232;-70
2021/12/09 04:49:35;;;;;;;8.40;5.10;;;;;;;4.39;92.66;94999.88;5044031;28;20212;-71
2021/12/09 04:52:03;;;;;;;8.67;4.53;;;;;;;4.44;92.29;95008.84;5044794;28;20229;-70
2021/12/09 04:54:30;;;;;;;8.20;3.83;;;;;;;4.35;92.89;95006.41;5044029;28;20250;-69
2021/12/09 04:56:58;;;;;;;8.17;4.67;;;;;;;4.70;92.64;95014.56;5044125;28;20204;-70
2021/12/09 04:59:24;;;;;;;5.40;3.33;;;;;;;4.43;92.14;95009.81;5042317;28;20228;-70
2021/12/09 05:01:51;;;;;;;8.80;4.03;;;;;;;4.41;92.23;95008.34;5043795;28;20251;-70
2021/12/09 05:04:18;;;;;;;6.47;4.87;;;;;;;4.50;92.55;95007.34;5043103;28;20221;-70
2021/12/09 05:06:44;;;;;;;7.27;3.57;;;;;;;4.38;92.85;95006.91;5044577;28;20343;-69
2021/12/09 05:09:16;;;;;;;6.73;3.37;;;;;;;4.42;92.49;94999.56;5043989;28;20216;-70
2021/12/09 05:11:49;;;;;;;10.20;3.70;;;;;;;4.31;93.00;95007.75;5043573;28;20689;-70
2021/12/09 05:14:18;;;;;;;15.03;4.30;;;;;;;4.29;93.90;95005.31;5042227;28;20216;-69
2021/12/09 05:16:47;;;;;;;4.53;2.83;;;;;;;4.17;95.21;95008.44;5043531;28;20213;-70
2021/12/09 05:19:14;;;;;;;4.40;3.00;;;;;;;4.10;94.43;95014.50;5043405;28;20907;-70
2021/12/09 05:21:40;;;;;;;3.47;2.50;;;;;;;4.11;94.56;95006.53;5042899;28;20239;-70
2021/12/09 05:24:10;;;;;;;4.83;2.87;;;;;;;4.31;94.68;95023.38;5043218;28;20583;-70
2021/12/09 05:26:42;;;;;;;18.00;3.67;;;;;;;4.29;93.85;95031.38;5043683;28;20209;-70
2021/12/09 05:29:09;;;;;;;7.03;3.73;;;;;;;4.39;93.27;95036.38;5043278;28;20298;-70
2021/12/09 05:34:22;;;;;;;6.87;2.77;;;;;;;4.35;93.68;95054.19;5042170;28;20240;-71
2021/12/09 05:36:48;;;;;;;4.33;3.03;;;;;;;4.09;94.11;95044.97;5042258;28;20223;-70
2021/12/09 05:39:16;;;;;;;5.03;3.17;;;;;;;4.34;93.78;95043.91;5041273;28;20215;-70
2021/12/09 05:41:44;;;;;;;5.97;2.27;;;;;;;4.45;93.46;95030.50;5041271;28;20233;-70
2021/12/09 05:44:12;;;;;;;3.10;1.67;;;;;;;4.28;93.81;95039.38;5040179;28;20216;-70
2021/12/09 05:46:43;;;;;;;3.40;1.83;;;;;;;4.51;93.35;95027.22;5041030;28;20711;-69
2021/12/09 05:49:10;;;;;;;4.33;3.00;;;;;;;4.26;94.33;95036.94;5040836;28;20699;-70
2021/12/09 05:51:39;;;;;;;2.33;1.80;;;;;;;4.63;93.17;95034.47;5040057;28;20220;-70
2021/12/09 05:54:06;;;;;;;1.67;1.57;;;;;;;4.54;92.88;95026.88;5040160;28;20676;-70
2021/12/09 05:56:33;;;;;;;1.87;1.73;;;;;;;4.53;92.47;95033.91;5040653;28;20208;-70
2021/12/09 05:58:59;;;;;;;2.80;2.27;;;;;;;4.52;92.58;95037.47;5039296;28;20215;-71
2021/12/09 06:01:26;;;;;;;7.10;2.97;;;;;;;4.51;92.21;95040.25;5040154;28;20726;-70
2021/12/09 06:03:54;;;;;;;5.97;1.87;;;;;;;4.75;92.24;95046.19;5040437;28;20204;-70
2021/12/09 06:06:20;;;;;;;3.17;2.30;;;;;;;4.59;92.15;95043.63;5041088;28;20956;-70
2021/12/09 06:08:47;;;;;;;4.80;2.30;;;;;;;4.63;91.84;95049.34;5039916;28;20232;-70
2021/12/09 06:11:14;;;;;;;4.67;2.67;;;;;;;4.54;92.31;95064.19;5040359;28;20232;-70
2021/12/09 06:13:41;;;;;;;5.33;2.57;;;;;;;4.43;92.75;95063.75;5042567;28;20205;-70
2021/12/09 06:16:09;;;;;;;6.33;4.10;;;;;;;4.72;92.33;95063.97;5042735;28;20197;-70
2021/12/09 06:18:36;;;;;;;3.20;2.47;;;;;;;4.53;92.29;95069.59;5043208;28;20219;-71
2021/12/09 06:21:05;;;;;;;5.80;2.40;;;;;;;4.76;92.56;95067.84;5043257;28;20233;-70
2021/12/09 06:23:31;;;;;;;26.07;3.30;;;;;;;4.56;92.74;95079.69;5042723;28;20204;-70
2021/12/09 06:25:58;;;;;;;5.27;3.03;;;;;;;4.68;92.15;95073.91;5043108;28;20208;-70
2021/12/09 06:28:24;;;;;;;1.47;1.33;;;;;;;4.66;92.11;95075.06;5042478;28;20232;-71
2021/12/09 06:30:51;;;;;;;7.83;4.70;;;;;;;4.55;92.41;95088.50;5042355;28;20237;-70
2021/12/09 06:33:17;;;;;;;4.23;3.67;;;;;;;4.55;92.44;95088.50;5041760;28;20217;-70
2021/12/09 06:35:44;;;;;;;7.93;2.50;;;;;;;4.26;93.33;95083.88;5041565;28;20204;-70
2021/12/09 06:38:15;;;;;;;7.37;4.13;;;;;;;4.77;92.77;95078.13;5041254;28;20669;-70
2021/12/09 06:40:43;;;;;;;10.77;2.53;;;;;;;4.59;92.94;95079.34;5041258;28;20696;-70
2021/12/09 06:43:09;;;;;;;7.17;3.33;;;;;;;4.68;92.46;95078.34;5040712;28;20208;-70
2021/12/09 06:45:36;;;;;;;5.97;3.57;;;;;;;4.67;92.39;95081.91;5040431;28;20590;-70
2021/12/09 06:48:03;;;;;;;6.47;2.57;;;;;;;4.59;92.76;95074.94;5040781;28;20223;-70
2021/12/09 06:50:29;;;;;;;3.57;2.63;;;;;;;4.69;92.35;95079.97;5040005;28;20320;-69
2021/12/09 06:52:56;;;;;;;23.00;2.37;;;;;;;4.62;92.41;95089.44;5039057;28;20219;-69
2021/12/09 06:55:24;;;;;;;5.57;3.33;;;;;;;4.91;92.22;95085.22;5040634;28;20201;-69
2021/12/09 06:57:51;;;;;;;7.37;3.10;;;;;;;4.75;92.03;95094.94;5040205;28;20287;-68
2021/12/09 07:00:21;;;;;;;4.10;3.00;;;;;;;4.94;91.83;95100.56;5037525;28;20753;-69
2021/12/09 07:02:48;;;;;;;4.10;2.90;;;;;;;4.77;91.72;95109.44;5037038;28;20215;-69
2021/12/09 07:05:17;;;;;;;8.10;4.27;;;;;;;4.94;91.50;95098.75;5040060;28;20690;-69
2021/12/09 07:07:43;;;;;;;8.37;4.73;;;;;;;4.78;91.55;95110.25;5038953;28;20232;-69
2021/12/09 07:10:13;;;;;;;6.33;3.00;;;;;;;5.07;91.50;95101.63;5037855;28;20201;-69
2021/12/09 07:12:42;;;;;;;15.17;3.00;;;;;;;5.17;91.13;95104.84;5038086;28;20201;-68
2021/12/09 07:15:10;;;;;;;16.23;4.03;;;;;;;4.97;91.65;95110.66;5037708;28;20204;-68
2021/12/09 07:17:37;;;;;;;4.27;3.13;;;;;;;4.79;91.58;95109.28;5038787;28;20197;-69
2021/12/09 07:20:06;;;;;;;5.83;3.60;;;;;;;4.96;91.65;95115.09;5038756;28;20215;-69
2021/12/09 07:22:32;;;;;;;6.30;3.53;;;;;;;4.77;91.84;95119.88;5036900;28;20205;-69
2021/12/09 07:24:59;;;;;;;5.00;2.87;;;;;;;4.81;91.82;95126.38;5038641;28;20216;-69
2021/12/09 07:27:26;;;;;;;5.07;2.93;;;;;;;4.83;91.55;95124.41;5038570;28;20208;-68
2021/12/09 07:29:53;;;;;;;7.27;3.50;;;;;;;4.99;91.80;95122.56;5039104;28;20220;-68
2021/12/09 07:32:20;;;;;;;6.83;3.13;;;;;;;4.70;91.95;95131.97;5038671;28;20235;-68
2021/12/09 07:34:47;;;;;;;8.07;5.80;;;;;;;4.72;92.31;95135.22;5039092;28;20212;-68
2021/12/09 07:37:13;;;;;;;14.70;7.00;;;;;;;4.82;91.76;95131.44;5039581;28;20215;-69
2021/12/09 07:39:40;;;;;;;7.63;5.13;;;;;;;4.91;91.66;95134.81;5039018;28;20196;-69
2021/12/09 07:42:08;;;;;;;5.47;2.80;;;;;;;4.96;91.37;95143.78;5037207;28;20229;-68
2021/12/09 07:44:35;;;;;;;7.30;3.17;;;;;;;5.13;90.98;95132.28;5036900;28;20197;-68
2021/12/09 07:47:03;;;;;;;9.87;4.07;;;;;;;5.51;89.62;95134.84;5038515;28;20220;-69
2021/12/09 07:49:29;;;;;;;17.07;3.73;;;;;;;5.34;88.89;95132.47;5037945;28;20232;-69
2021/12/09 07:51:56;;;;;;;4.53;2.83;;;;;;;5.51;88.62;95139.22;5034614;28;20227;-69
2021/12/09 07:54:23;;;;;;;7.03;4.47;;;;;;;5.47;88.63;95140.56;5037949;28;20197;-69
2021/12/09 07:56:50;;;;;;;10.87;4.53;;;;;;;5.44;88.90;95146.16;5036878;28;20215;-69
2021/12/09 07:59:17;;;;;;;14.27;4.20;;;;;;;5.37;89.00;95147.81;5035715;28;20197;-69
2021/12/09 08:01:44;;;;;;;9.60;5.60;;;;;;;5.42;89.18;95152.53;5037503;28;20228;-69
2021/12/09 08:04:12;;;;;;;14.03;8.00;;;;;;;5.72;88.70;95157.72;5037357;28;20208;-69
2021/12/09 08:06:39;;;;;;;11.30;4.93;;;;;;;5.51;89.19;95162.75;5037956;28;20668;-69
2021/12/09 08:09:08;;;;;;;8.77;4.97;;;;;;;5.62;88.46;95160.56;5037600;28;20225;-69
2021/12/09 08:11:36;;;;;;;14.87;5.40;;;;;;;5.67;88.42;95157.44;5037713;28;20224;-69
2021/12/09 08:14:03;;;;;;;8.60;4.73;;;;;;;5.66;87.83;95166.25;5036593;28;20296;-69
2021/12/09 08:16:33;;;;;;;15.37;3.63;;;;;;;5.52;87.99;95167.81;5037410;28;20204;-69
2021/12/09 08:19:00;;;;;;;11.93;5.50;;;;;;;5.51;88.31;95167.97;5037046;28;20209;-69
2021/12/09 08:21:28;;;;;;;6.00;3.60;;;;;;;5.80;88.01;95168.16;5037653;28;20259;-69
2021/12/09 08:23:55;;;;;;;4.20;3.23;;;;;;;5.67;87.92;95171.31;5036242;28;20216;-69
2021/12/09 08:26:23;;;;;;;5.00;3.23;;;;;;;5.83;87.48;95178.25;5036567;28;20566;-69
2021/12/09 08:28:50;;;;;;;5.00;2.87;;;;;;;5.73;87.36;95182.88;5036876;28;20229;-69
2021/12/09 08:31:16;;;;;;;9.83;3.47;;;;;;;5.76;87.30;95185.16;5036457;28;20240;-69
2021/12/09 08:33:43;;;;;;;5.20;2.87;;;;;;;5.52;87.46;95191.34;5036196;28;20633;-69
2021/12/09 08:36:10;;;;;;;4.27;2.20;;;;;;;5.79;86.83;95188.25;5038143;28;20776;-69
2021/12/09 08:38:38;;;;;;;15.43;2.07;;;;;;;5.95;86.94;95190.75;5037234;28;20197;-69
2021/12/09 08:41:05;;;;;;;6.83;3.73;;;;;;;5.74;87.59;95187.09;5037003;28;20235;-69
2021/12/09 08:43:32;;;;;;;5.93;3.13;;;;;;;5.75;86.90;95186.94;5036881;28;20297;-69
2021/12/09 08:45:59;;;;;;;21.50;2.20;;;;;;;5.82;86.20;95193.13;5036994;28;20205;-69
2021/12/09 08:48:27;;;;;;;3.47;2.57;;;;;;;6.02;86.52;95191.69;5036975;28;20221;-69
2021/12/09 08:50:54;;;;;;;2.90;2.57;;;;;;;5.63;86.67;95188.31;5036839;28;20244;-69
2021/12/09 08:53:23;;;;;;;4.80;2.87;;;;;;;6.18;85.75;95204.63;5036582;28;20207;-69
2021/12/09 08:55:52;;;;;;;2.37;1.90;;;;;;;6.06;85.88;95203.44;5035523;28;20216;-69
2021/12/09 08:58:19;;;;;;;8.00;3.87;;;;;;;5.88;85.88;95207.31;5034002;28;20201;-68
2021/12/09 09:00:47;;;;;;;2.27;2.03;;;;;;;6.18;85.29;95204.63;5031106;28;20225;-68
2021/12/09 09:03:14;;;;;;;2.73;1.83;;;;;;;5.65;86.97;95209.88;5035409;28;20315;-69
2021/12/09 09:05:42;;;;;;;3.47;2.10;;;;;;;5.80;86.78;95205.53;5032948;28;20205;-69
2021/12/09 09:08:09;;;;;;;6.40;2.47;;;;;;;5.67;86.59;95212.31;5035405;28;20197;-69
2021/12/09 09:10:38;;;;;;;4.43;2.50;;;;;;;5.73;87.43;95209.03;5035921;28;20232;-69
2021/12/09 09:13:06;;;;;;;12.93;1.83;;;;;;;5.95;86.78;95209.06;5034224;28;20208;-69
2021/12/09 09:15:33;;;;;;;3.00;2.73;;;;;;;5.86;86.70;95210.09;5036026;28;20490;-69
2021/12/09 09:18:01;;;;;;;4.63;2.53;;;;;;;5.69;87.01;95220.78;5036450;28;20209;-68
2021/12/09 09:20:30;;;;;;;4.03;2.33;;;;;;;5.71;87.08;95216.19;5033654;28;20250;-68
2021/12/09 09:22:57;;;;;;;2.10;1.50;;;;;;;5.23;88.30;95228.69;5034677;28;20213;-68
2021/12/09 09:25:29;;;;;;;1.37;1.27;;;;;;;5.61;87.62;95228.66;5037397;28;20200;-68
2021/12/09 09:27:56;;;;;;;4.80;2.20;;;;;;;5.93;86.47;95229.34;5036464;28;20201;-69
2021/12/09 09:30:27;;;;;;;4.83;3.30;;;;;;;5.94;86.65;95230.16;5036945;28;20224;-68
2021/12/09 09:32:54;;;;;;;8.40;1.83;;;;;;;5.61;86.82;95236.50;5032105;28;20306;-69
2021/12/09 09:35:20;;;;;;;5.03;2.30;;;;;;;5.71;86.50;95234.50;5034229;28;20213;-69
2021/12/09 09:37:48;;;;;;;3.90;1.70;;;;;;;5.96;85.63;95231.59;5035241;28;20209;-68
2021/12/09 09:40:23;;;;;;;4.97;2.33;;;;;;;6.11;85.46;95238.53;5034657;28;20215;-69
2021/12/09 09:42:59;;;;;;;4.20;2.27;;;;;;;6.05;85.32;95243.63;5032686;28;20882;-69
2021/12/09 09:45:28;;;;;;;2.87;1.27;;;;;;;5.99;86.02;95238.28;5032535;28;20317;-69
2021/12/09 09:47:55;;;;;;;3.60;1.53;;;;;;;5.68;86.23;95247.91;5037390;28;20201;-69
2021/12/09 09:50:22;;;;;;;1.63;1.20;;;;;;;5.38;86.90;95246.06;5037986;28;20221;-69
2021/12/09 09:52:49;;;;;;;1.10;1.03;;;;;;;5.48;86.48;95242.28;5035326;28;20193;-68
2021/12/09 09:55:20;;;;;;;2.53;1.67;;;;;;;5.88;85.68;95249.97;5038803;28;20205;-69
2021/12/09 09:57:48;;;;;;;4.20;2.67;;;;;;;5.73;85.77;95241.19;5039510;28;21035;-68
2021/12/09 10:00:17;;;;;;;4.80;2.33;;;;;;;5.69;86.71;95239.91;5036686;28;20209;-69
2021/12/09 10:02:51;;;;;;;2.60;2.40;;;;;;;6.07;85.91;95245.09;5039608;28;21006;-69
2021/12/09 10:05:22;;;;;;;6.83;1.93;;;;;;;5.85;84.96;95244.25;5038706;28;20209;-69
2021/12/09 10:07:50;;;;;;;2.73;1.80;;;;;;;6.06;85.11;95253.13;5037778;28;20669;-69
2021/12/09 10:10:17;;;;;;;1.63;1.53;;;;;;;5.66;85.94;95249.88;5036561;28;20221;-69
2021/12/09 10:13:00;;;;;;;4.57;2.50;;;;;;;6.05;84.90;95246.25;5037412;28;20995;-68
2021/12/09 10:15:34;;;;;;;3.13;1.40;;;;;;;6.15;85.19;95234.56;5035259;28;20262;-69
2021/12/09 10:18:02;;;;;;;3.03;1.83;;;;;;;5.66;86.37;95240.22;5038374;28;20565;-69
2021/12/09 10:20:44;;;;;;;1.73;1.63;;;;;;;6.09;85.00;95232.63;5039066;28;20221;-69
2021/12/09 10:23:27;;;;;;;3.53;2.20;;;;;;;6.43;83.95;95240.06;5037671;28;20657;-69
2021/12/09 10:26:21;;;;;;;7.53;2.17;;;;;;;6.72;82.74;95235.72;5025906;28;20201;-70
2021/12/09 10:28:52;;;;;;;1.03;0.93;;;;;;;6.07;84.55;95228.56;5039719;28;20228;-69
2021/12/09 10:31:24;;;;;;;3.50;1.90;;;;;;;6.01;84.84;95229.28;5036796;28;21052;-69
2021/12/09 10:34:05;;;;;;;2.60;1.87;;;;;;;6.10;85.51;95226.44;5038964;28;20295;-69
2021/12/09 10:36:53;;;;;;;2.67;1.77;;;;;;;6.74;83.67;95229.31;5038997;28;20205;-69
2021/12/09 10:39:26;;;;;;;2.23;1.53;;;;;;;6.18;83.97;95223.75;5037866;28;20968;-69
2021/12/09 10:41:54;;;;;;;1.77;1.07;;;;;;;6.25;82.91;95221.25;5039710;28;20661;-69
2021/12/09 10:44:32;;;;;;;8.87;1.77;;;;;;;6.56;83.38;95216.75;5039543;28;20216;-68
2021/12/09 10:47:08;;;;;;;5.53;1.20;;;;;;;6.69;82.28;95209.91;5038349;28;20216;-68
2021/12/09 10:49:47;;;;;;;1.10;0.90;;;;;;;6.70;81.92;95214.16;5036743;28;20221;-69
2021/12/09 10:52:22;;;;;;;4.17;1.67;;;;;;;6.90;81.42;95213.47;5037178;28;20235;-69
2021/12/09 10:54:48;;;;;;;2.00;1.13;;;;;;;6.54;81.90;95227.38;5039528;28;20208;-69
2021/12/09 10:57:27;;;;;;;5.23;2.30;;;;;;;6.56;82.00;95232.44;5037343;28;20197;-69
2021/12/09 10:59:54;;;;;;;4.43;2.30;;;;;;;5.83;84.12;95235.75;5036338;28;20216;-69
2021/12/09 11:02:20;;;;;;;2.13;1.40;;;;;;;6.14;83.97;95240.78;5038421;28;20239;-69
2021/12/09 11:05:06;;;;;;;2.50;1.47;;;;;;;6.34;82.91;95235.88;5037814;28;20212;-69
2021/12/09 11:07:33;;;;;;;1.13;1.03;;;;;;;5.95;83.91;95235.19;5037069;28;20201;-69
2021/12/09 11:10:18;;;;;;;2.80;1.80;;;;;;;6.86;82.78;95224.44;5036780;28;20663;-69
2021/12/09 11:12:55;;;;;;;3.10;1.53;;;;;;;7.25;82.37;95219.78;5036619;28;20197;-69
2021/12/09 11:15:23;;;;;;;1.07;1.00;;;;;;;6.53;83.19;95219.69;5038912;28;20316;-69
2021/12/09 11:17:52;;;;;;;3.77;2.33;;;;;;;6.32;83.08;95222.19;5037907;28;20224;-69
2021/12/09 11:20:44;;;;;;;1.23;1.10;;;;;;;7.13;81.54;95215.97;5036693;28;20256;-69
2021/12/09 11:23:29;;;;;;;7.33;1.37;;;;;;;7.26;81.92;95223.03;5037636;28;20201;-69
2021/12/09 11:25:58;;;;;;;1.60;1.50;;;;;;;6.55;82.10;95217.72;5038468;28;20212;-69
2021/12/09 11:28:26;;;;;;;2.17;1.27;;;;;;;6.32;82.53;95224.78;5038544;28;20295;-69
2021/12/09 11:31:11;;;;;;;3.13;1.80;;;;;;;7.28;81.59;95234.16;5037912;28;20256;-69
2021/12/09 11:33:41;;;;;;;1.77;1.40;;;;;;;6.63;81.34;95235.97;5037295;28;20197;-69
2021/12/09 11:36:15;;;;;;;4.13;1.93;;;;;;;6.31;82.90;95231.84;5038103;28;20597;-69
2021/12/09 11:39:08;;;;;;;1.83;1.47;;;;;;;6.45;82.99;95233.66;5038541;28;20509;-69
2021/12/09 11:41:39;;;;;;;0.70;0.70;;;;;;;6.33;84.06;95229.84;5038097;28;20228;-69
2021/12/09 11:44:08;;;;;;;1.33;1.10;;;;;;;6.10;84.24;95225.63;5036668;28;20225;-69
2021/12/09 11:46:36;;;;;;;1.47;1.37;;;;;;;6.19;83.95;95227.19;5037599;28;20290;-69
2021/12/09 11:49:03;;;;;;;3.40;1.67;;;;;;;6.21;83.14;95228.66;5038213;28;20588;-68
2021/12/09 11:51:31;;;;;;;0.60;0.60;;;;;;;5.82;85.16;95224.50;5037661;28;20224;-69